Metar Aviation Weather Data KBHC Baxley Municipal

61°F Temp
61°F Dewpoint
100% Humidity
Temperature
MPH
0 KM/H
KTS
Calm
Due North

Wind Speed
Light Rain
Showers
Pressure 1014 (hPa) - 29.94 (in)
Visibility 5.0 (mi) - 8.0 (km)

Current Conditions
KBHC
Baxley Municipal
Metar :KBHC 150435Z AUTO 00000KT 5SM RA SCT008 BKN011 OVC019 16/16 A2994 RMK AO2
Sat 15th December 00:35 am

Baxley Municipal
  Metar Aviation API Data Provided by https://www.checkwx.com/ PHP scripts by weather34.com ©2018